Time;durP1;ratioP1;P1;durP2;ratioP2;P2;SDS_P1;SDS_P2;PMS_P1;PMS_P2;Temp;Humidity;BMP_temperature;BMP_pressure;BME280_temperature;BME280_humidity;BME280_pressure;Samples;Min_cycle;Max_cycle;Signal;HPM_P1;HPM_P2
2021/05/13 00:00:21;;;;;;;12.80;3.92;;;;;;;;;;4922024;28;20035;-58
2021/05/13 00:02:49;;;;;;;12.68;4.22;;;;;;;;;;4921626;28;20027;-59
2021/05/13 00:05:14;;;;;;;25.40;4.63;;;;;;;;;;4910082;28;20028;-58
2021/05/13 00:07:40;;;;;;;14.98;4.75;;;;;;;;;;4920766;28;20141;-59
2021/05/13 00:10:11;;;;;;;9.45;3.65;;;;;;;;;;4922592;28;20113;-58
2021/05/13 00:15:08;;;;;;;17.42;4.18;;;;;;;;;;4923421;28;20040;-58
2021/05/13 00:17:42;;;;;;;14.95;3.80;;;;;;;;;;4939092;28;20603;-58
2021/05/13 00:20:12;;;;;;;6.88;3.13;;;;;;;;;;4924825;28;20051;-59
2021/05/13 00:22:38;;;;;;;11.40;3.58;;;;;;;;;;4926783;28;20899;-58
2021/05/13 00:25:05;;;;;;;18.73;4.78;;;;;;;;;;4926949;28;20027;-59
2021/05/13 00:27:34;;;;;;;9.00;2.90;;;;;;;;;;4926594;28;20028;-58
2021/05/13 00:30:00;;;;;;;7.97;2.22;;;;;;;;;;4912635;28;20075;-59
2021/05/13 00:32:25;;;;;;;8.60;2.25;;;;;;;;;;4927921;28;20989;-58
2021/05/13 00:34:54;;;;;;;8.27;2.53;;;;;;;;;;4925945;28;20836;-59
2021/05/13 00:37:22;;;;;;;8.63;2.00;;;;;;;;;;4941803;28;20035;-59
2021/05/13 00:39:50;;;;;;;5.80;2.63;;;;;;;;;;4924830;28;20031;-58
2021/05/13 00:42:15;;;;;;;7.50;2.42;;;;;;;;;;4913004;28;20068;-58
2021/05/13 00:44:45;;;;;;;10.52;3.25;;;;;;;;;;4925995;28;20401;-60
2021/05/13 00:47:12;;;;;;;9.80;3.17;;;;;;;;;;4922689;28;21074;-60
2021/05/13 00:49:38;;;;;;;5.90;2.90;;;;;;;;;;4928115;28;20039;-58
2021/05/13 00:52:05;;;;;;;10.70;2.95;;;;;;;;;;4923182;28;20046;-59
2021/05/13 00:54:31;;;;;;;13.18;3.83;;;;;;;;;;4927030;28;20506;-61
2021/05/13 00:57:01;;;;;;;8.43;3.08;;;;;;;;;;4927180;28;20612;-58
2021/05/13 00:59:30;;;;;;;11.05;3.00;;;;;;;;;;4920794;28;20097;-58
2021/05/13 01:01:55;;;;;;;6.93;2.83;;;;;;;;;;4928310;28;20034;-57
2021/05/13 01:04:22;;;;;;;7.65;3.55;;;;;;;;;;4925316;28;20050;-59
2021/05/13 01:06:48;;;;;;;11.98;3.47;;;;;;;;;;4926701;28;20055;-59
2021/05/13 01:09:24;;;;;;;13.50;4.50;;;;;;;;;;4925573;28;20101;-59
2021/05/13 01:12:05;;;;;;;8.98;3.33;;;;;;;;;;4911534;29;20073;-59
2021/05/13 01:17:16;;;;;;;12.55;2.95;;;;;;;;;;4923982;28;20091;-58
2021/05/13 01:19:46;;;;;;;13.02;3.60;;;;;;;;;;4926241;28;20922;-59
2021/05/13 01:22:12;;;;;;;7.40;3.33;;;;;;;;;;4922325;28;20027;-59
2021/05/13 01:24:40;;;;;;;8.68;2.78;;;;;;;;;;4926345;28;20027;-58
2021/05/13 01:27:08;;;;;;;9.23;3.08;;;;;;;;;;4939434;28;20036;-58
2021/05/13 01:29:34;;;;;;;8.15;3.10;;;;;;;;;;4921778;28;20506;-58
2021/05/13 01:32:02;;;;;;;8.10;3.88;;;;;;;;;;4927828;28;20082;-58
2021/05/13 01:34:30;;;;;;;9.13;2.72;;;;;;;;;;4938956;28;20911;-58
2021/05/13 01:36:56;;;;;;;12.55;3.50;;;;;;;;;;4926061;28;20706;-57
2021/05/13 01:39:21;;;;;;;8.10;3.17;;;;;;;;;;4910192;28;20042;-58
2021/05/13 01:41:47;;;;;;;8.07;3.08;;;;;;;;;;4925524;28;20024;-58
2021/05/13 01:44:13;;;;;;;12.27;3.70;;;;;;;;;;4924689;28;20075;-59
2021/05/13 01:46:39;;;;;;;9.57;3.05;;;;;;;;;;4921046;28;20942;-58
2021/05/13 01:49:15;;;;;;;9.23;2.45;;;;;;;;;;4923933;28;20102;-59
2021/05/13 01:51:40;;;;;;;5.35;2.50;;;;;;;;;;4913207;28;20035;-58
2021/05/13 01:54:09;;;;;;;16.10;3.15;;;;;;;;;;4923291;28;20042;-58
2021/05/13 01:56:37;;;;;;;7.38;3.03;;;;;;;;;;4927098;28;20031;-57
2021/05/13 01:59:02;;;;;;;7.68;2.97;;;;;;;;;;4911002;28;20040;-58
2021/05/13 02:01:29;;;;;;;7.13;3.45;;;;;;;;;;4924151;28;20398;-58
2021/05/13 02:03:55;;;;;;;10.60;2.92;;;;;;;;;;4924645;28;22033;-58
2021/05/13 02:06:20;;;;;;;7.88;3.88;;;;;;;;;;4919563;28;20103;-58
2021/05/13 02:08:46;;;;;;;8.00;3.05;;;;;;;;;;4924502;28;20035;-57
2021/05/13 02:11:12;;;;;;;5.88;2.42;;;;;;;;;;4921382;28;20039;-58
2021/05/13 02:13:40;;;;;;;9.68;2.75;;;;;;;;;;4925585;28;20487;-58
2021/05/13 02:16:06;;;;;;;8.57;2.42;;;;;;;;;;4938857;28;20110;-58
2021/05/13 02:18:33;;;;;;;6.97;1.90;;;;;;;;;;4926255;28;20065;-58
2021/05/13 02:21:01;;;;;;;7.07;2.30;;;;;;;;;;4922183;28;20106;-58
2021/05/13 02:23:27;;;;;;;7.07;2.58;;;;;;;;;;4897651;29;20587;-59
2021/05/13 02:25:53;;;;;;;6.55;1.92;;;;;;;;;;4922972;28;20034;-58
2021/05/13 02:28:18;;;;;;;3.35;1.73;;;;;;;;;;4911045;28;20043;-58
2021/05/13 02:30:46;;;;;;;1.77;1.30;;;;;;;;;;4909429;28;20054;-57
2021/05/13 02:33:12;;;;;;;5.93;1.58;;;;;;;;;;4924527;28;20543;-58
2021/05/13 02:35:40;;;;;;;1.80;1.45;;;;;;;;;;4925823;28;20040;-58
2021/05/13 02:38:10;;;;;;;8.50;2.00;;;;;;;;;;4924981;28;20054;-58
2021/05/13 02:40:35;;;;;;;2.20;1.38;;;;;;;;;;4923372;28;20110;-58
2021/05/13 02:43:03;;;;;;;2.30;1.67;;;;;;;;;;4925167;28;20031;-56
2021/05/13 02:45:29;;;;;;;2.50;1.40;;;;;;;;;;4922568;28;20426;-58
2021/05/13 02:47:58;;;;;;;3.63;1.75;;;;;;;;;;4919867;28;20695;-56
2021/05/13 02:50:23;;;;;;;4.30;1.95;;;;;;;;;;4923619;28;21016;-58
2021/05/13 02:52:48;;;;;;;2.00;1.38;;;;;;;;;;4923588;28;20042;-59
2021/05/13 02:55:16;;;;;;;3.65;2.08;;;;;;;;;;4932485;28;20031;-58
2021/05/13 02:57:42;;;;;;;4.15;1.65;;;;;;;;;;4926094;28;20042;-58
2021/05/13 03:02:41;;;;;;;7.32;2.72;;;;;;;;;;4939765;28;21031;-58
2021/05/13 03:05:07;;;;;;;4.60;2.65;;;;;;;;;;4922955;28;20046;-58
2021/05/13 03:07:42;;;;;;;7.20;3.38;;;;;;;;;;4925357;28;21656;-58
2021/05/13 03:10:15;;;;;;;5.67;2.67;;;;;;;;;;4923267;28;20070;-58
2021/05/13 03:12:44;;;;;;;7.65;3.08;;;;;;;;;;4923877;28;20322;-58
2021/05/13 03:15:12;;;;;;;9.02;3.25;;;;;;;;;;4925173;28;20065;-57
2021/05/13 03:17:38;;;;;;;8.18;3.90;;;;;;;;;;4924722;28;20054;-57
2021/05/13 03:20:04;;;;;;;6.32;3.60;;;;;;;;;;4922771;28;20045;-57
2021/05/13 03:22:31;;;;;;;12.88;4.85;;;;;;;;;;4923519;28;20039;-58
2021/05/13 03:25:07;;;;;;;9.02;3.78;;;;;;;;;;4910072;29;20046;-57
2021/05/13 03:27:49;;;;;;;9.23;3.38;;;;;;;;;;4923135;28;20035;-58
2021/05/13 03:30:15;;;;;;;7.35;3.05;;;;;;;;;;4923321;28;20043;-59
2021/05/13 03:32:41;;;;;;;13.10;4.53;;;;;;;;;;4922779;28;20181;-60
2021/05/13 03:35:07;;;;;;;7.57;3.95;;;;;;;;;;4938124;28;20518;-59
2021/05/13 03:37:35;;;;;;;10.02;3.88;;;;;;;;;;4908353;28;20046;-58
2021/05/13 03:40:01;;;;;;;6.80;3.47;;;;;;;;;;4923540;28;20039;-58
2021/05/13 03:42:29;;;;;;;8.77;3.30;;;;;;;;;;4922318;28;20031;-57
2021/05/13 03:44:56;;;;;;;10.82;3.22;;;;;;;;;;4920700;28;20042;-59
2021/05/13 03:47:24;;;;;;;9.45;3.20;;;;;;;;;;4924051;28;20122;-58
2021/05/13 03:49:50;;;;;;;5.85;3.70;;;;;;;;;;4923775;28;21912;-56
2021/05/13 03:52:16;;;;;;;10.05;3.05;;;;;;;;;;4921366;28;20153;-57
2021/05/13 03:54:42;;;;;;;5.88;3.15;;;;;;;;;;4922321;28;20830;-57
2021/05/13 03:57:08;;;;;;;7.32;2.35;;;;;;;;;;4921867;28;20118;-58
2021/05/13 03:59:36;;;;;;;7.03;2.70;;;;;;;;;;4923724;28;20150;-58
2021/05/13 04:04:30;;;;;;;5.85;2.75;;;;;;;;;;4938195;28;22010;-59
2021/05/13 04:06:57;;;;;;;9.00;3.08;;;;;;;;;;4922356;28;20035;-58
2021/05/13 04:09:22;;;;;;;8.35;3.22;;;;;;;;;;4937170;28;20428;-57
2021/05/13 04:11:48;;;;;;;7.60;3.15;;;;;;;;;;4911997;28;20036;-57
2021/05/13 04:14:17;;;;;;;8.73;2.90;;;;;;;;;;4923726;28;20094;-58
2021/05/13 04:16:49;;;;;;;10.35;4.00;;;;;;;;;;4924173;28;20035;-58
2021/05/13 04:19:14;;;;;;;8.27;2.95;;;;;;;;;;4922905;28;20066;-58
2021/05/13 04:21:44;;;;;;;11.38;3.35;;;;;;;;;;4927328;28;20027;-59
2021/05/13 04:24:10;;;;;;;6.38;3.00;;;;;;;;;;4923307;28;20043;-59
2021/05/13 04:26:40;;;;;;;8.00;3.67;;;;;;;;;;4922754;28;20031;-58
2021/05/13 04:29:06;;;;;;;8.35;3.85;;;;;;;;;;4927121;28;20036;-58
2021/05/13 04:31:34;;;;;;;8.48;3.25;;;;;;;;;;4921196;28;20121;-58
2021/05/13 04:34:00;;;;;;;8.05;2.95;;;;;;;;;;4923608;28;20043;-58
2021/05/13 04:36:26;;;;;;;7.05;2.92;;;;;;;;;;4923017;28;20669;-59
2021/05/13 04:38:52;;;;;;;6.88;2.88;;;;;;;;;;4922783;28;20121;-58
2021/05/13 04:41:17;;;;;;;4.10;2.60;;;;;;;;;;4925960;28;20043;-58
2021/05/13 04:43:46;;;;;;;5.75;2.95;;;;;;;;;;4926587;28;20643;-58
2021/05/13 04:46:12;;;;;;;7.72;3.20;;;;;;;;;;4938464;28;20027;-58
2021/05/13 04:51:16;;;;;;;9.98;3.60;;;;;;;;;;4907943;28;21083;-58
2021/05/13 04:53:42;;;;;;;7.85;2.97;;;;;;;;;;4921993;28;20398;-58
2021/05/13 04:56:07;;;;;;;7.50;2.80;;;;;;;;;;4908798;29;20131;-58
2021/05/13 04:58:33;;;;;;;12.05;3.47;;;;;;;;;;4925353;28;20092;-58
2021/05/13 05:01:01;;;;;;;8.35;2.83;;;;;;;;;;4921947;28;20050;-59
2021/05/13 05:03:26;;;;;;;6.32;3.25;;;;;;;;;;4919067;28;20028;-59
2021/05/13 05:05:56;;;;;;;5.80;2.80;;;;;;;;;;4922722;28;20934;-59
2021/05/13 05:08:22;;;;;;;5.78;3.00;;;;;;;;;;4907978;28;20031;-58
2021/05/13 05:10:47;;;;;;;9.02;3.05;;;;;;;;;;4941355;28;20102;-58
2021/05/13 05:13:13;;;;;;;7.65;2.75;;;;;;;;;;4925125;28;20033;-58
2021/05/13 05:15:41;;;;;;;7.63;3.25;;;;;;;;;;4928971;28;20066;-59
2021/05/13 05:18:07;;;;;;;5.30;2.38;;;;;;;;;;4929373;28;20054;-59
2021/05/13 05:20:35;;;;;;;8.00;2.83;;;;;;;;;;4921938;28;20031;-59
2021/05/13 05:23:00;;;;;;;11.90;2.97;;;;;;;;;;4909206;29;20542;-59
2021/05/13 05:25:25;;;;;;;9.40;2.65;;;;;;;;;;4924395;28;20583;-59
2021/05/13 05:27:54;;;;;;;6.38;2.17;;;;;;;;;;4921523;28;20031;-58
2021/05/13 05:30:22;;;;;;;12.05;2.55;;;;;;;;;;4911726;29;20048;-58
2021/05/13 05:32:48;;;;;;;7.28;1.95;;;;;;;;;;4893047;29;20063;-58
2021/05/13 05:35:19;;;;;;;3.53;1.63;;;;;;;;;;4912200;28;20034;-58
2021/05/13 05:37:48;;;;;;;4.55;2.08;;;;;;;;;;4925870;28;21939;-59
2021/05/13 05:40:16;;;;;;;3.63;1.83;;;;;;;;;;4925499;28;20039;-60
2021/05/13 05:42:42;;;;;;;5.03;1.58;;;;;;;;;;4940096;28;20039;-59
2021/05/13 05:45:12;;;;;;;5.13;1.52;;;;;;;;;;4927289;28;20035;-58
2021/05/13 05:47:40;;;;;;;4.93;2.08;;;;;;;;;;4911330;29;20046;-59
2021/05/13 05:50:06;;;;;;;2.85;1.50;;;;;;;;;;4924039;28;20035;-58
2021/05/13 05:52:32;;;;;;;2.45;1.52;;;;;;;;;;4940183;28;20031;-59
2021/05/13 05:55:00;;;;;;;4.60;1.55;;;;;;;;;;4909431;28;20126;-58
2021/05/13 05:57:25;;;;;;;5.15;1.88;;;;;;;;;;4926022;28;20043;-59
2021/05/13 05:59:55;;;;;;;3.80;1.35;;;;;;;;;;4906410;29;20069;-58
2021/05/13 06:02:21;;;;;;;3.78;1.30;;;;;;;;;;4925069;28;20035;-59
2021/05/13 06:04:47;;;;;;;7.15;1.60;;;;;;;;;;4909832;28;20047;-58
2021/05/13 06:07:13;;;;;;;1.67;1.23;;;;;;;;;;4927004;28;20039;-59
2021/05/13 06:09:39;;;;;;;6.15;1.60;;;;;;;;;;4912081;28;20035;-59
2021/05/13 06:12:05;;;;;;;2.80;1.30;;;;;;;;;;4922800;28;20040;-58
2021/05/13 06:14:32;;;;;;;5.47;1.42;;;;;;;;;;4923787;28;20034;-59
2021/05/13 06:17:00;;;;;;;3.70;1.42;;;;;;;;;;4924804;28;20039;-59
2021/05/13 06:19:29;;;;;;;8.30;2.03;;;;;;;;;;4924319;28;20062;-59
2021/05/13 06:21:55;;;;;;;8.00;1.80;;;;;;;;;;4926829;28;20097;-59
2021/05/13 06:24:24;;;;;;;7.28;1.80;;;;;;;;;;4921284;28;20149;-59
2021/05/13 06:26:57;;;;;;;5.38;1.98;;;;;;;;;;4912081;28;20036;-58
2021/05/13 06:29:25;;;;;;;5.53;2.05;;;;;;;;;;4926956;28;20036;-59
2021/05/13 06:31:53;;;;;;;9.55;2.65;;;;;;;;;;4926741;28;20203;-58
2021/05/13 06:34:19;;;;;;;6.95;2.55;;;;;;;;;;4924367;28;20116;-59
2021/05/13 06:36:44;;;;;;;11.82;2.67;;;;;;;;;;4939980;28;20038;-59
2021/05/13 06:39:10;;;;;;;8.80;2.08;;;;;;;;;;4911731;29;20922;-58
2021/05/13 06:41:41;;;;;;;8.65;2.80;;;;;;;;;;4940764;28;20126;-59
2021/05/13 06:44:06;;;;;;;7.72;2.55;;;;;;;;;;4907988;28;21680;-59
2021/05/13 06:46:34;;;;;;;10.35;2.75;;;;;;;;;;4924319;28;20585;-59
2021/05/13 06:49:00;;;;;;;14.57;3.30;;;;;;;;;;4922788;28;20035;-59
2021/05/13 06:51:29;;;;;;;11.80;2.53;;;;;;;;;;4923728;28;20798;-60
2021/05/13 06:53:55;;;;;;;9.90;3.15;;;;;;;;;;4924600;28;20059;-59
2021/05/13 06:56:23;;;;;;;10.55;2.55;;;;;;;;;;4925106;28;20480;-59
2021/05/13 06:58:49;;;;;;;9.05;2.67;;;;;;;;;;4924987;28;20043;-59
2021/05/13 07:01:14;;;;;;;10.65;2.30;;;;;;;;;;4934873;28;20027;-59
2021/05/13 07:03:43;;;;;;;7.63;2.30;;;;;;;;;;4924252;28;20041;-59
2021/05/13 07:06:09;;;;;;;11.10;2.38;;;;;;;;;;4905878;28;20031;-59
2021/05/13 07:08:34;;;;;;;6.10;2.30;;;;;;;;;;4926950;28;20040;-60
2021/05/13 07:11:00;;;;;;;6.28;2.08;;;;;;;;;;4923940;28;20027;-61
2021/05/13 07:13:26;;;;;;;8.70;2.10;;;;;;;;;;4922665;28;20094;-60
2021/05/13 07:15:52;;;;;;;8.05;2.25;;;;;;;;;;4921493;28;20240;-59
2021/05/13 07:18:17;;;;;;;6.88;2.10;;;;;;;;;;4940278;28;20039;-59
2021/05/13 07:20:43;;;;;;;6.00;1.60;;;;;;;;;;4922564;28;20023;-58
2021/05/13 07:23:09;;;;;;;8.43;2.00;;;;;;;;;;4940405;28;20110;-61
2021/05/13 07:25:37;;;;;;;5.45;2.13;;;;;;;;;;4923854;28;20054;-59
2021/05/13 07:28:05;;;;;;;6.03;2.00;;;;;;;;;;4939383;28;20117;-60
2021/05/13 07:30:32;;;;;;;7.03;1.83;;;;;;;;;;4935881;28;20925;-59
2021/05/13 07:33:01;;;;;;;7.10;1.98;;;;;;;;;;4923691;28;20122;-60
2021/05/13 07:35:29;;;;;;;5.70;1.70;;;;;;;;;;4907571;29;20035;-59
2021/05/13 07:38:06;;;;;;;7.00;2.15;;;;;;;;;;4905436;28;20045;-60
2021/05/13 07:40:32;;;;;;;7.53;2.63;;;;;;;;;;4922377;28;20090;-59
2021/05/13 07:42:57;;;;;;;7.07;1.98;;;;;;;;;;4939405;28;20031;-59
2021/05/13 07:45:24;;;;;;;7.53;1.52;;;;;;;;;;4927182;28;20068;-60
2021/05/13 07:47:52;;;;;;;8.25;2.33;;;;;;;;;;4920719;28;20058;-60
2021/05/13 07:50:20;;;;;;;6.07;1.33;;;;;;;;;;4920693;28;20039;-60
2021/05/13 07:52:46;;;;;;;5.75;1.70;;;;;;;;;;4922706;28;20063;-60
2021/05/13 07:55:13;;;;;;;5.60;1.67;;;;;;;;;;4922565;28;20043;-60
2021/05/13 07:57:38;;;;;;;5.30;1.42;;;;;;;;;;4904563;29;20051;-60
2021/05/13 08:00:06;;;;;;;6.53;1.15;;;;;;;;;;4918269;28;20043;-59
2021/05/13 08:02:32;;;;;;;3.30;1.42;;;;;;;;;;4924334;28;20024;-60
2021/05/13 08:05:06;;;;;;;2.83;1.17;;;;;;;;;;4937168;28;20252;-61
2021/05/13 08:07:35;;;;;;;3.70;1.08;;;;;;;;;;4925594;28;20046;-61
2021/05/13 08:10:01;;;;;;;3.78;1.15;;;;;;;;;;4921930;28;20051;-60
2021/05/13 08:12:29;;;;;;;4.13;1.25;;;;;;;;;;4924553;28;21639;-61
2021/05/13 08:14:58;;;;;;;4.38;1.02;;;;;;;;;;4923536;28;20034;-62
2021/05/13 08:17:26;;;;;;;7.30;1.13;;;;;;;;;;4910487;29;20467;-61
2021/05/13 08:19:53;;;;;;;1.15;0.70;;;;;;;;;;4922842;28;20036;-61
2021/05/13 08:22:21;;;;;;;1.00;0.40;;;;;;;;;;4926889;28;20039;-61
2021/05/13 08:24:47;;;;;;;2.80;0.73;;;;;;;;;;4909003;29;20094;-60
2021/05/13 08:27:13;;;;;;;4.78;1.33;;;;;;;;;;4926846;28;20043;-60
2021/05/13 08:29:44;;;;;;;2.67;0.50;;;;;;;;;;4923384;28;20034;-60
2021/05/13 08:32:10;;;;;;;1.67;0.68;;;;;;;;;;4922453;28;20047;-61
2021/05/13 08:34:38;;;;;;;1.65;0.50;;;;;;;;;;4921533;28;20035;-61
2021/05/13 08:37:06;;;;;;;2.35;0.47;;;;;;;;;;4922932;28;20106;-60
2021/05/13 08:39:34;;;;;;;4.20;0.77;;;;;;;;;;4921418;28;20070;-62
2021/05/13 08:42:03;;;;;;;2.95;1.15;;;;;;;;;;4939235;28;20039;-61
2021/05/13 08:44:28;;;;;;;2.38;0.80;;;;;;;;;;4926749;28;20039;-60
2021/05/13 08:46:56;;;;;;;2.08;0.70;;;;;;;;;;4927988;28;20027;-60
2021/05/13 08:49:25;;;;;;;2.58;0.68;;;;;;;;;;4942561;28;20959;-61
2021/05/13 08:51:50;;;;;;;2.85;0.85;;;;;;;;;;4926928;28;21158;-61
2021/05/13 08:54:16;;;;;;;5.25;1.20;;;;;;;;;;4895717;29;20050;-61
2021/05/13 08:56:44;;;;;;;2.20;1.00;;;;;;;;;;4926368;28;20024;-62
2021/05/13 08:59:14;;;;;;;1.23;0.60;;;;;;;;;;4938002;28;20055;-61
2021/05/13 09:01:53;;;;;;;3.20;0.80;;;;;;;;;;4942786;28;20145;-60
2021/05/13 09:04:19;;;;;;;1.83;0.50;;;;;;;;;;4925633;28;20031;-60
2021/05/13 09:06:46;;;;;;;5.28;0.80;;;;;;;;;;4912642;28;21151;-59
2021/05/13 09:09:13;;;;;;;3.80;0.75;;;;;;;;;;4914653;28;21993;-61
2021/05/13 09:11:49;;;;;;;3.45;0.93;;;;;;;;;;4912795;28;20066;-62
2021/05/13 09:14:22;;;;;;;3.83;0.80;;;;;;;;;;4923117;28;20027;-58
2021/05/13 09:16:49;;;;;;;3.13;0.77;;;;;;;;;;4913884;28;20027;-61
2021/05/13 09:19:17;;;;;;;2.20;1.40;;;;;;;;;;4941148;28;20086;-61
2021/05/13 09:22:10;;;;;;;1.90;0.80;;;;;;;;;;4925221;28;20123;-62
2021/05/13 09:24:43;;;;;;;3.28;0.90;;;;;;;;;;4910622;28;20126;-61
2021/05/13 09:27:27;;;;;;;2.88;0.85;;;;;;;;;;4940589;28;20614;-60
2021/05/13 09:30:17;;;;;;;1.48;0.93;;;;;;;;;;4939897;28;20562;-64
2021/05/13 09:32:47;;;;;;;1.98;0.85;;;;;;;;;;4929246;28;20055;-60
2021/05/13 09:35:18;;;;;;;7.53;1.10;;;;;;;;;;4928773;28;20036;-61
2021/05/13 09:37:45;;;;;;;2.83;0.93;;;;;;;;;;4942526;28;20114;-62
2021/05/13 09:40:14;;;;;;;2.17;0.80;;;;;;;;;;4923332;28;20745;-60
2021/05/13 09:42:48;;;;;;;3.95;1.17;;;;;;;;;;4924941;28;20037;-61
2021/05/13 09:45:13;;;;;;;2.10;1.00;;;;;;;;;;4926397;28;20119;-61
2021/05/13 09:47:44;;;;;;;5.20;0.98;;;;;;;;;;4921682;28;20063;-60
2021/05/13 09:50:21;;;;;;;3.70;0.80;;;;;;;;;;4908886;28;20037;-60
2021/05/13 09:52:55;;;;;;;3.28;1.05;;;;;;;;;;4925843;28;20072;-60
2021/05/13 09:55:22;;;;;;;2.05;0.90;;;;;;;;;;4923639;28;20031;-60
2021/05/13 09:58:11;;;;;;;5.38;0.90;;;;;;;;;;4926823;28;20023;-61
2021/05/13 10:00:39;;;;;;;4.13;1.15;;;;;;;;;;4924207;28;20039;-60
2021/05/13 10:03:09;;;;;;;2.45;0.70;;;;;;;;;;4925130;28;21836;-60
2021/05/13 10:05:38;;;;;;;1.55;0.73;;;;;;;;;;4924000;28;20507;-60
2021/05/13 10:08:22;;;;;;;2.97;1.10;;;;;;;;;;4924813;28;20023;-61
2021/05/13 10:10:51;;;;;;;3.33;0.90;;;;;;;;;;4925578;28;20038;-61
2021/05/13 10:13:29;;;;;;;1.95;0.80;;;;;;;;;;4925966;28;20028;-60
2021/05/13 10:15:59;;;;;;;2.35;0.47;;;;;;;;;;4940201;28;20579;-61
2021/05/13 10:18:38;;;;;;;2.45;0.80;;;;;;;;;;4924268;28;20031;-61
2021/05/13 10:21:10;;;;;;;2.10;0.90;;;;;;;;;;4925707;28;20401;-59
2021/05/13 10:23:40;;;;;;;1.50;0.80;;;;;;;;;;4924823;28;21974;-59
2021/05/13 10:26:09;;;;;;;1.38;0.77;;;;;;;;;;4927458;28;20051;-61
2021/05/13 10:28:35;;;;;;;1.85;1.00;;;;;;;;;;4941626;28;20034;-61
2021/05/13 10:31:05;;;;;;;1.73;0.90;;;;;;;;;;4924019;28;20415;-60
2021/05/13 10:33:51;;;;;;;2.53;0.70;;;;;;;;;;4926982;28;20513;-60
2021/05/13 10:36:17;;;;;;;3.13;1.10;;;;;;;;;;4925719;28;20122;-60
2021/05/13 10:38:47;;;;;;;3.38;0.95;;;;;;;;;;4929265;28;20036;-60
2021/05/13 10:41:28;;;;;;;2.13;0.90;;;;;;;;;;4909145;29;20246;-60
2021/05/13 10:44:00;;;;;;;1.92;0.98;;;;;;;;;;4908951;29;20045;-61
2021/05/13 10:46:29;;;;;;;4.63;1.30;;;;;;;;;;4924082;28;20039;-60
2021/05/13 10:49:28;;;;;;;4.82;1.45;;;;;;;;;;4923866;29;20047;-60
2021/05/13 10:51:59;;;;;;;3.92;1.02;;;;;;;;;;4925615;28;20058;-61
2021/05/13 10:54:28;;;;;;;1.35;0.82;;;;;;;;;;4936847;28;20030;-60
2021/05/13 10:57:17;;;;;;;2.25;0.90;;;;;;;;;;4922300;28;20439;-60
2021/05/13 11:00:04;;;;;;;2.67;1.33;;;;;;;;;;4922593;28;20546;-60
2021/05/13 11:02:48;;;;;;;2.33;0.80;;;;;;;;;;4910341;29;20144;-57
2021/05/13 11:05:26;;;;;;;1.58;0.77;;;;;;;;;;4909511;28;20621;-59
2021/05/13 11:07:53;;;;;;;2.67;0.60;;;;;;;;;;4923808;28;20062;-61
2021/05/13 11:10:19;;;;;;;1.58;0.80;;;;;;;;;;4921593;28;20035;-61
2021/05/13 11:12:44;;;;;;;3.15;0.90;;;;;;;;;;4923611;28;20139;-62
2021/05/13 11:17:54;;;;;;;4.50;1.10;;;;;;;;;;4938944;28;20509;-62
2021/05/13 11:20:40;;;;;;;2.20;0.82;;;;;;;;;;4921211;28;20031;-63
2021/05/13 11:23:07;;;;;;;2.08;0.80;;;;;;;;;;4924024;28;20035;-62
2021/05/13 11:25:43;;;;;;;1.10;0.80;;;;;;;;;;4924307;28;20034;-63
2021/05/13 11:28:18;;;;;;;3.17;0.90;;;;;;;;;;4926006;28;20042;-61
2021/05/13 11:30:44;;;;;;;4.25;1.10;;;;;;;;;;4923966;28;20035;-64
2021/05/13 11:33:10;;;;;;;2.28;0.88;;;;;;;;;;4923672;28;20044;-62
2021/05/13 11:35:37;;;;;;;3.13;1.10;;;;;;;;;;4925139;28;20034;-62
2021/05/13 11:38:18;;;;;;;3.53;0.70;;;;;;;;;;4925265;28;20033;-62
2021/05/13 11:40:44;;;;;;;4.13;1.02;;;;;;;;;;4923622;28;20102;-63
2021/05/13 11:43:20;;;;;;;1.83;0.80;;;;;;;;;;4923564;28;20117;-61
2021/05/13 11:45:53;;;;;;;1.92;0.82;;;;;;;;;;4932992;28;20082;-64
2021/05/13 11:48:34;;;;;;;4.43;1.02;;;;;;;;;;4933226;28;20031;-62
2021/05/13 11:51:04;;;;;;;2.90;1.08;;;;;;;;;;4919008;28;20031;-63
2021/05/13 11:53:35;;;;;;;1.75;0.77;;;;;;;;;;4938124;28;20121;-64
2021/05/13 11:56:04;;;;;;;1.92;0.75;;;;;;;;;;4911058;29;20046;-64
2021/05/13 11:58:39;;;;;;;3.42;0.98;;;;;;;;;;4926608;28;20067;-61
2021/05/13 12:01:28;;;;;;;1.42;0.60;;;;;;;;;;4924550;28;20275;-64
2021/05/13 12:03:53;;;;;;;1.08;0.70;;;;;;;;;;4928123;28;20082;-63
2021/05/13 12:06:19;;;;;;;2.33;0.70;;;;;;;;;;4927410;28;20131;-64
2021/05/13 12:08:45;;;;;;;3.03;0.93;;;;;;;;;;4927371;28;20167;-62
2021/05/13 12:11:23;;;;;;;2.33;0.85;;;;;;;;;;4918168;28;20752;-63
2021/05/13 12:13:52;;;;;;;1.58;0.45;;;;;;;;;;4922986;28;20095;-62
2021/05/13 12:16:19;;;;;;;1.27;0.50;;;;;;;;;;4924528;28;20130;-62
2021/05/13 12:18:46;;;;;;;3.25;1.00;;;;;;;;;;4924408;28;20165;-61
2021/05/13 12:21:13;;;;;;;2.92;0.75;;;;;;;;;;4925606;28;21001;-64
2021/05/13 12:23:40;;;;;;;3.95;1.02;;;;;;;;;;4927713;28;20031;-63
2021/05/13 12:26:10;;;;;;;1.58;0.77;;;;;;;;;;4923051;28;20054;-62
2021/05/13 12:28:36;;;;;;;2.53;0.88;;;;;;;;;;4928628;28;20036;-63
2021/05/13 12:31:02;;;;;;;2.53;0.90;;;;;;;;;;4920127;28;20041;-63
2021/05/13 12:33:30;;;;;;;1.80;1.08;;;;;;;;;;4921829;28;20044;-62
2021/05/13 12:35:56;;;;;;;1.63;0.73;;;;;;;;;;4935268;28;20074;-64
2021/05/13 12:38:25;;;;;;;2.20;0.50;;;;;;;;;;4916709;28;21003;-62
2021/05/13 12:41:06;;;;;;;1.65;0.50;;;;;;;;;;4921096;28;20062;-63
2021/05/13 12:43:35;;;;;;;1.80;0.60;;;;;;;;;;4923482;28;20036;-64
2021/05/13 12:46:16;;;;;;;0.70;0.38;;;;;;;;;;4918705;28;20032;-64
2021/05/13 12:48:42;;;;;;;3.05;1.02;;;;;;;;;;4921144;28;20028;-63
2021/05/13 12:51:16;;;;;;;4.93;1.02;;;;;;;;;;4921919;28;20032;-63
2021/05/13 12:54:00;;;;;;;1.30;1.13;;;;;;;;;;4917339;28;20027;-63
2021/05/13 12:56:29;;;;;;;3.08;1.00;;;;;;;;;;4920342;28;20643;-61
2021/05/13 12:59:08;;;;;;;2.00;1.02;;;;;;;;;;4907271;28;20059;-62
2021/05/13 13:01:35;;;;;;;3.88;1.02;;;;;;;;;;4924245;28;20240;-63
2021/05/13 13:04:04;;;;;;;2.33;0.90;;;;;;;;;;4918509;28;20632;-62
2021/05/13 13:06:30;;;;;;;3.65;0.98;;;;;;;;;;4918602;28;20123;-63
2021/05/13 13:08:55;;;;;;;2.42;0.70;;;;;;;;;;4918259;28;20027;-62
2021/05/13 13:11:32;;;;;;;1.15;0.68;;;;;;;;;;4917082;28;20558;-64
2021/05/13 13:14:05;;;;;;;2.53;0.75;;;;;;;;;;4915377;28;20042;-63
2021/05/13 13:16:34;;;;;;;2.43;0.70;;;;;;;;;;4935552;28;20054;-63
2021/05/13 13:19:13;;;;;;;1.98;0.90;;;;;;;;;;4935119;28;20417;-63
2021/05/13 13:21:41;;;;;;;3.63;0.93;;;;;;;;;;4922985;28;20032;-64
2021/05/13 13:24:16;;;;;;;4.18;0.95;;;;;;;;;;4924970;28;20038;-64
2021/05/13 13:26:47;;;;;;;4.15;1.20;;;;;;;;;;4924022;28;20056;-62
2021/05/13 13:29:18;;;;;;;1.33;0.52;;;;;;;;;;4901727;29;20594;-64
2021/05/13 13:31:45;;;;;;;4.90;0.85;;;;;;;;;;4928053;28;20130;-63
2021/05/13 13:34:13;;;;;;;1.10;0.57;;;;;;;;;;4925089;28;20039;-63
2021/05/13 13:36:38;;;;;;;2.05;1.08;;;;;;;;;;4896645;29;20044;-62
2021/05/13 13:39:09;;;;;;;5.00;1.27;;;;;;;;;;4929516;28;20042;-62
2021/05/13 13:41:35;;;;;;;1.70;0.98;;;;;;;;;;4921681;29;20027;-63
2021/05/13 13:44:01;;;;;;;3.40;1.05;;;;;;;;;;4926721;28;20806;-62
2021/05/13 13:46:27;;;;;;;2.55;1.10;;;;;;;;;;4938812;28;20059;-62
2021/05/13 13:48:52;;;;;;;3.10;1.10;;;;;;;;;;4942775;28;20546;-62
2021/05/13 13:51:18;;;;;;;2.08;1.00;;;;;;;;;;4925292;28;20062;-63
2021/05/13 13:53:43;;;;;;;1.92;0.80;;;;;;;;;;4926249;28;20049;-63
2021/05/13 13:56:09;;;;;;;3.20;0.88;;;;;;;;;;4915916;28;20105;-64
2021/05/13 13:58:34;;;;;;;2.75;1.52;;;;;;;;;;4916412;28;20030;-62
2021/05/13 14:01:02;;;;;;;1.92;1.00;;;;;;;;;;4928075;28;20035;-62
2021/05/13 14:03:28;;;;;;;2.63;1.30;;;;;;;;;;4925566;28;20032;-62
2021/05/13 14:05:56;;;;;;;2.28;0.88;;;;;;;;;;4926312;28;20062;-62
2021/05/13 14:08:24;;;;;;;5.50;1.75;;;;;;;;;;4926509;28;20046;-62
2021/05/13 14:10:55;;;;;;;1.20;0.57;;;;;;;;;;4925429;28;22073;-64
2021/05/13 14:13:21;;;;;;;1.55;0.70;;;;;;;;;;4926728;28;20037;-62
2021/05/13 14:15:52;;;;;;;0.95;0.65;;;;;;;;;;4925818;28;20478;-63
2021/05/13 14:18:29;;;;;;;2.22;0.70;;;;;;;;;;4924732;28;20039;-63
2021/05/13 14:20:58;;;;;;;4.80;0.95;;;;;;;;;;4929654;28;20043;-62
2021/05/13 14:23:24;;;;;;;2.08;0.50;;;;;;;;;;4939889;28;20038;-62
2021/05/13 14:25:52;;;;;;;1.80;0.70;;;;;;;;;;4927711;28;20137;-63
2021/05/13 14:28:18;;;;;;;0.52;0.40;;;;;;;;;;4940413;28;20066;-61
2021/05/13 14:30:43;;;;;;;0.95;0.60;;;;;;;;;;4911579;28;20039;-63
2021/05/13 14:33:14;;;;;;;2.28;0.93;;;;;;;;;;4925824;28;20072;-62
2021/05/13 14:35:39;;;;;;;3.38;0.85;;;;;;;;;;4913831;29;20027;-63
2021/05/13 14:38:05;;;;;;;1.52;0.82;;;;;;;;;;4912086;29;20682;-62
2021/05/13 14:40:38;;;;;;;0.75;0.60;;;;;;;;;;4923219;28;20030;-62
2021/05/13 14:43:03;;;;;;;3.20;1.02;;;;;;;;;;4927945;28;20035;-63
2021/05/13 14:45:29;;;;;;;1.55;0.90;;;;;;;;;;4923757;28;20130;-61
2021/05/13 14:48:05;;;;;;;2.53;1.30;;;;;;;;;;4926654;28;20039;-62
2021/05/13 14:50:35;;;;;;;1.60;1.33;;;;;;;;;;4926230;28;20039;-62
2021/05/13 14:53:04;;;;;;;3.15;1.55;;;;;;;;;;4928864;28;20363;-61
2021/05/13 14:55:31;;;;;;;2.65;1.30;;;;;;;;;;4926370;28;20105;-61
2021/05/13 14:57:56;;;;;;;2.63;1.58;;;;;;;;;;4896813;28;21186;-61
2021/05/13 15:00:23;;;;;;;3.05;1.63;;;;;;;;;;4925268;28;20046;-61
2021/05/13 15:02:52;;;;;;;5.45;3.70;;;;;;;;;;4928257;28;20031;-63
2021/05/13 15:05:18;;;;;;;3.97;2.30;;;;;;;;;;4924624;28;20495;-63